Harare, Zimbabwe

7:18 AM CAT on February 12, 2016 (GMT +0200)
Harare International | | Change Station
CLOSE
Current Station
Airport
Location: Harare Kutsaga,
Elevation: 4856 ft
Nearby Weather Stations

Elev 4856 ft 17.92 °S, 31.13 °E | Updated 18 minutes ago

Light Rain
Light Rain
64 °F
Feels Like 64 °F
N
9
Wind Variable Wind from NE

Today
High -- | Low -- °F
--% Chance of Precip.
Yesterday
High -- | Low -- °F
Precip. -- in
Pressure 30.15 in
Visibility 5.0 miles
Clouds Few 1000 ft
Mostly Cloudy 8000 ft
Dew Point 64 °F
Humidity 100%
Rainfall 0.00 in
Snow Depth Not available.
5:48 AM 6:31 PM
Waxing Crescent, 17% visible
METAR FVHA 120500Z 04008KT 8000 -RA FEW010 BKN080 18/18 Q1021 NOSIG RMK QFE 853.5
Pressure 30.15 in
Visibility 5.0 miles
Clouds Few 1000 ft
Mostly Cloudy 8000 ft
Dew Point 64 °F
Humidity 100%
Rainfall 0.00 in
Snow Depth Not available.
5:48 AM 6:31 PM
Waxing Crescent, 17% visible
METAR FVHA 120500Z 04008KT 8000 -RA FEW010 BKN080 18/18 Q1021 NOSIG RMK QFE 853.5

10-Day Weather Forecast

No radar image for this location.
×

Almanac

Astronomy

Feb. 12, 2016 Rise Set
Actual Time
Civil Twilight
Nautical Twilight
Astronomical Twilight
Moon
Length of Visible Light
Length of Day
Tomorrow will be .
, % of the Moon is Illuminated

Today's Extremes

Country Highs Country Lows

Community

WunderPhotos

Upload Photos

1,892,265 photos uploaded!

WunderBlog® & News

Nearby

Air Quality

  Air Quality AQ Index Pollutant
Not available.

Snow Depth

Station Depth Elevation

Earthquake Activity

City Distance Mag. Time & Date
Minimum magnitude displayed is 2.5.

Coastal Water Temperatures

Place Temperature

Stations

Nearby Weather Stations

Station Location Temp. Windchill Dew Point Humidity Wind Precip. Elev Updated Type